createdAt,value
2019-02-25T00:00:30.830Z,12.50
2019-02-25T00:03:01.709Z,12.13
2019-02-25T00:05:33.198Z,12.63
2019-02-25T00:08:04.145Z,12.83
2019-02-25T00:10:35.021Z,15.80
2019-02-25T00:13:06.026Z,13.83
2019-02-25T00:15:37.036Z,12.63
2019-02-25T00:18:08.031Z,11.20
2019-02-25T00:20:38.913Z,11.30
2019-02-25T00:23:09.765Z,12.80
2019-02-25T00:25:40.716Z,11.17
2019-02-25T00:28:11.572Z,13.33
2019-02-25T00:30:42.466Z,11.73
2019-02-25T00:33:13.321Z,13.57
2019-02-25T00:35:44.192Z,10.50
2019-02-25T00:38:15.063Z,12.47
2019-02-25T00:40:45.990Z,11.47
2019-02-25T00:43:16.852Z,11.60
2019-02-25T00:45:47.880Z,8.23
2019-02-25T00:48:18.726Z,10.33
2019-02-25T00:50:49.729Z,10.63
2019-02-25T00:53:20.591Z,12.50
2019-02-25T00:55:51.453Z,13.17
2019-02-25T00:58:22.304Z,13.33
2019-02-25T01:00:53.249Z,13.20
2019-02-25T01:03:24.135Z,12.80
2019-02-25T01:05:55.062Z,9.60
2019-02-25T01:08:25.926Z,11.27
2019-02-25T01:10:56.855Z,10.63
2019-02-25T01:13:27.909Z,10.97
2019-02-25T01:15:58.754Z,12.27
2019-02-25T01:18:29.607Z,11.13
2019-02-25T01:21:00.463Z,10.37
2019-02-25T01:23:31.357Z,10.13
2019-02-25T01:26:02.221Z,10.60
2019-02-25T01:28:33.107Z,11.70
2019-02-25T01:31:04.014Z,10.73
2019-02-25T01:33:34.964Z,11.47
2019-02-25T01:36:05.846Z,12.07
2019-02-25T01:38:36.707Z,9.03
2019-02-25T01:41:07.569Z,11.20
2019-02-25T01:43:38.459Z,12.67
2019-02-25T01:46:09.323Z,8.83
2019-02-25T01:48:40.280Z,14.20
2019-02-25T01:51:11.194Z,10.80
2019-02-25T01:53:41.997Z,13.03
2019-02-25T01:56:12.831Z,12.47
2019-02-25T01:58:43.702Z,12.50
2019-02-25T02:01:14.557Z,13.30
2019-02-25T02:03:45.400Z,11.40
2019-02-25T02:06:16.297Z,11.90
2019-02-25T02:08:47.155Z,13.20
2019-02-25T02:11:18.011Z,14.10
2019-02-25T02:13:48.890Z,13.03
2019-02-25T02:16:19.745Z,14.97
2019-02-25T02:18:50.608Z,14.10
2019-02-25T02:21:21.471Z,12.60
2019-02-25T02:23:52.310Z,13.80
2019-02-25T02:26:23.168Z,13.43
2019-02-25T02:28:54.030Z,13.70
2019-02-25T02:31:24.887Z,13.10
2019-02-25T02:33:55.754Z,13.97
2019-02-25T02:36:26.642Z,12.27
2019-02-25T02:38:57.503Z,11.50
2019-02-25T02:41:28.360Z,13.93
2019-02-25T02:43:59.213Z,12.10
2019-02-25T02:46:41.744Z,13.70
2019-02-25T02:49:12.587Z,13.27
2019-02-25T02:51:43.469Z,13.10
2019-02-25T02:54:14.326Z,12.53
2019-02-25T02:56:45.176Z,12.27
2019-02-25T02:59:16.041Z,12.63
2019-02-25T03:01:47.120Z,11.03
2019-02-25T03:04:17.963Z,11.63
2019-02-25T03:06:48.842Z,12.97
2019-02-25T03:09:19.696Z,14.77
2019-02-25T03:11:50.644Z,12.00
2019-02-25T03:14:21.488Z,12.47
2019-02-25T03:16:52.328Z,11.37
2019-02-25T03:19:23.194Z,11.53
2019-02-25T03:21:54.048Z,11.57
2019-02-25T03:24:24.921Z,11.43
2019-02-25T03:26:55.770Z,12.40
2019-02-25T03:29:26.633Z,10.40
2019-02-25T03:31:57.498Z,11.83
2019-02-25T03:34:28.372Z,11.73
2019-02-25T03:36:59.234Z,10.87
2019-02-25T03:39:30.104Z,12.80
2019-02-25T03:42:01.030Z,12.57
2019-02-25T03:44:31.896Z,12.07
2019-02-25T03:47:02.796Z,10.20
2019-02-25T03:49:33.680Z,11.67
2019-02-25T03:52:04.608Z,13.83
2019-02-25T03:54:35.495Z,11.47
2019-02-25T03:57:06.364Z,11.40
2019-02-25T03:59:37.403Z,10.83
2019-02-25T04:02:08.423Z,10.57
2019-02-25T04:04:39.409Z,11.80
2019-02-25T04:07:10.371Z,10.73
2019-02-25T04:09:41.221Z,11.40
2019-02-25T04:12:12.079Z,11.30
2019-02-25T04:14:42.922Z,10.90
2019-02-25T04:17:13.775Z,12.27
2019-02-25T04:19:44.630Z,15.20
2019-02-25T04:22:15.573Z,9.43
2019-02-25T04:24:46.440Z,9.63
2019-02-25T04:27:17.287Z,12.20
2019-02-25T04:29:48.157Z,9.97
2019-02-25T04:32:19.022Z,11.50
2019-02-25T04:34:49.885Z,14.53
2019-02-25T04:37:20.733Z,9.70
2019-02-25T04:39:51.579Z,8.77
2019-02-25T04:42:22.591Z,13.10
2019-02-25T04:44:53.451Z,12.03
2019-02-25T04:47:24.316Z,11.33
2019-02-25T04:49:55.236Z,10.83
2019-02-25T04:52:26.127Z,14.73
2019-02-25T04:54:56.979Z,10.87
2019-02-25T04:57:28.176Z,12.97
2019-02-25T04:59:59.205Z,13.10
2019-02-25T05:02:30.067Z,11.63
2019-02-25T05:05:00.931Z,17.37
2019-02-25T05:07:31.801Z,13.10
2019-02-25T05:10:02.735Z,7.17
2019-02-25T05:12:33.606Z,13.83
2019-02-25T05:15:05.533Z,11.50
2019-02-25T05:17:36.378Z,11.73
2019-02-25T05:20:08.270Z,13.97
2019-02-25T05:22:39.250Z,12.90
2019-02-25T05:25:11.883Z,13.03
2019-02-25T05:27:42.743Z,16.57
2019-02-25T05:30:17.385Z,19.87
2019-02-25T05:32:48.246Z,17.60
2019-02-25T05:35:19.126Z,17.50
2019-02-25T05:37:49.998Z,13.00
2019-02-25T05:40:21.327Z,16.10
2019-02-25T05:42:52.235Z,15.70
2019-02-25T05:45:23.222Z,15.00
2019-02-25T05:47:55.299Z,15.30
2019-02-25T05:50:26.131Z,13.57
2019-02-25T05:52:57.019Z,19.57
2019-02-25T05:55:27.925Z,16.77
2019-02-25T05:57:58.763Z,12.33
2019-02-25T06:00:33.564Z,18.57
2019-02-25T06:03:04.438Z,19.57
2019-02-25T06:05:35.329Z,14.37
2019-02-25T06:08:06.349Z,14.47
2019-02-25T06:10:38.655Z,15.20
2019-02-25T06:13:09.519Z,16.67
2019-02-25T06:15:40.361Z,13.30
2019-02-25T06:18:11.252Z,25.03
2019-02-25T06:20:42.309Z,28.70
2019-02-25T06:23:13.206Z,17.27
2019-02-25T06:25:44.345Z,18.43
2019-02-25T06:28:15.237Z,16.07
2019-02-25T06:30:46.173Z,20.23
2019-02-25T06:33:17.111Z,18.33
2019-02-25T06:35:47.972Z,13.50
2019-02-25T06:38:18.827Z,22.40
2019-02-25T06:40:49.711Z,16.43
2019-02-25T06:43:20.583Z,13.43
2019-02-25T06:45:51.459Z,15.97
2019-02-25T06:48:22.310Z,13.13
2019-02-25T06:50:53.198Z,13.30
2019-02-25T06:53:24.059Z,12.33
2019-02-25T06:55:54.933Z,18.23
2019-02-25T06:58:25.886Z,12.60
2019-02-25T07:00:56.767Z,16.13
2019-02-25T07:03:27.608Z,14.57
2019-02-25T07:06:02.935Z,16.27
2019-02-25T07:08:35.434Z,14.67
2019-02-25T07:11:10.915Z,16.73
2019-02-25T07:13:43.413Z,12.73
2019-02-25T07:16:21.973Z,15.77
2019-02-25T07:19:10.438Z,14.50
2019-02-25T07:21:45.622Z,14.87
2019-02-25T07:24:23.837Z,17.17
2019-02-25T07:27:04.766Z,19.33
2019-02-25T07:29:52.251Z,20.40
2019-02-25T07:32:27.680Z,19.07
2019-02-25T07:35:00.598Z,18.10
2019-02-25T07:37:44.836Z,20.93
2019-02-25T07:40:33.104Z,16.00
2019-02-25T07:43:11.010Z,21.37
2019-02-25T07:45:49.516Z,13.07
2019-02-25T07:48:22.004Z,14.10
2019-02-25T07:51:03.464Z,12.77
2019-02-25T07:53:47.852Z,18.00
2019-02-25T07:56:23.010Z,20.00
2019-02-25T07:58:55.530Z,25.73
2019-02-25T08:01:28.041Z,19.97
2019-02-25T08:04:15.412Z,21.53
2019-02-25T08:06:47.920Z,22.90
2019-02-25T08:09:26.406Z,16.00
2019-02-25T08:12:10.814Z,18.00
2019-02-25T08:14:43.330Z,21.77
2019-02-25T08:17:32.004Z,23.90
2019-02-25T08:20:06.926Z,25.20
2019-02-25T08:22:48.376Z,25.90
2019-02-25T08:25:23.346Z,28.03
2019-02-25T08:28:01.498Z,22.97
2019-02-25T08:30:36.968Z,29.33
2019-02-25T08:33:21.036Z,18.07
2019-02-25T08:36:11.522Z,18.70
2019-02-25T08:38:49.443Z,13.23
2019-02-25T08:41:24.580Z,15.80
2019-02-25T08:44:00.014Z,10.80
2019-02-25T08:46:41.576Z,11.73
2019-02-25T08:49:14.210Z,12.17
2019-02-25T08:51:45.158Z,13.03
2019-02-25T08:54:16.152Z,15.07
2019-02-25T08:56:47.016Z,11.43
2019-02-25T08:59:17.942Z,12.67
2019-02-25T09:01:48.800Z,11.53
2019-02-25T09:04:19.644Z,11.37
2019-02-25T09:06:50.509Z,13.00
2019-02-25T09:09:21.728Z,11.53
2019-02-25T09:11:52.708Z,11.43
2019-02-25T09:14:23.653Z,11.87
2019-02-25T09:16:54.536Z,11.53
2019-02-25T09:19:25.444Z,11.47
2019-02-25T09:21:56.431Z,12.13
2019-02-25T09:24:27.305Z,15.10
2019-02-25T09:26:58.156Z,14.80
2019-02-25T09:29:29.037Z,14.43
2019-02-25T09:31:59.906Z,11.10
2019-02-25T09:34:30.809Z,17.20
2019-02-25T09:37:01.671Z,12.20
2019-02-25T09:39:32.525Z,11.97
2019-02-25T09:42:03.377Z,9.40
2019-02-25T09:44:34.235Z,11.43
2019-02-25T09:47:05.289Z,13.13
2019-02-25T09:49:36.087Z,10.57
2019-02-25T09:52:06.933Z,14.10
2019-02-25T09:54:37.821Z,10.10
2019-02-25T09:57:08.679Z,9.47
2019-02-25T09:59:39.569Z,14.00
2019-02-25T10:02:10.457Z,12.57
2019-02-25T10:04:41.335Z,9.63
2019-02-25T10:07:12.265Z,15.97
2019-02-25T10:09:43.215Z,14.90
2019-02-25T10:12:14.107Z,12.17
2019-02-25T10:14:44.985Z,16.23
2019-02-25T10:17:23.561Z,13.57
2019-02-25T10:19:48.420Z,14.20
2019-02-25T10:22:19.285Z,16.10
2019-02-25T10:24:50.161Z,13.60
2019-02-25T10:27:21.001Z,12.77
2019-02-25T10:29:51.863Z,13.83
2019-02-25T10:32:23.647Z,14.07
2019-02-25T10:34:55.288Z,15.13
2019-02-25T10:37:26.159Z,15.90
2019-02-25T10:39:57.022Z,18.93
2019-02-25T10:42:29.505Z,13.77
2019-02-25T10:45:02.550Z,15.80
2019-02-25T10:47:33.179Z,17.40
2019-02-25T10:50:05.751Z,19.20
2019-02-25T10:52:38.765Z,18.60
2019-02-25T10:55:24.919Z,15.20
2019-02-25T10:57:57.593Z,19.57
2019-02-25T11:00:28.752Z,18.83
2019-02-25T11:02:59.597Z,15.87
2019-02-25T11:05:30.749Z,14.63
2019-02-25T11:08:05.196Z,14.30
2019-02-25T11:10:40.211Z,16.60
2019-02-25T11:13:11.133Z,16.03
2019-02-25T11:15:44.008Z,14.00
2019-02-25T11:18:14.536Z,18.50
2019-02-25T11:20:45.403Z,13.97
2019-02-25T11:23:17.600Z,11.50
2019-02-25T11:25:48.851Z,13.87
2019-02-25T11:28:25.453Z,19.07
2019-02-25T11:30:53.811Z,17.60
2019-02-25T11:33:27.106Z,14.83
2019-02-25T11:35:57.414Z,15.77
2019-02-25T11:38:30.343Z,14.77
2019-02-25T11:41:02.025Z,12.43
2019-02-25T11:43:33.395Z,16.77
2019-02-25T11:46:04.333Z,13.67
2019-02-25T11:48:35.224Z,13.00
2019-02-25T11:51:06.147Z,13.90
2019-02-25T11:53:37.011Z,13.27
2019-02-25T11:56:07.971Z,12.03
2019-02-25T11:58:38.825Z,12.53
2019-02-25T12:01:09.827Z,14.37
2019-02-25T12:03:40.672Z,9.57
2019-02-25T12:06:11.549Z,10.27
2019-02-25T12:08:42.410Z,10.23
2019-02-25T12:11:13.312Z,12.20
2019-02-25T12:13:44.168Z,9.83
2019-02-25T12:16:15.127Z,17.53
2019-02-25T12:18:45.997Z,11.63
2019-02-25T12:21:16.863Z,10.37
2019-02-25T12:23:47.726Z,12.00
2019-02-25T12:26:18.669Z,12.13
2019-02-25T12:28:49.584Z,9.60
2019-02-25T12:31:20.442Z,11.57
2019-02-25T12:33:51.444Z,8.80
2019-02-25T12:36:22.292Z,9.47
2019-02-25T12:38:53.208Z,12.03
2019-02-25T12:41:24.114Z,9.17
2019-02-25T12:43:55.080Z,8.90
2019-02-25T12:46:25.894Z,10.03
2019-02-25T12:48:56.868Z,11.07
2019-02-25T12:51:27.720Z,9.80
2019-02-25T12:53:58.691Z,7.93
2019-02-25T12:56:29.618Z,10.70
2019-02-25T12:59:00.606Z,6.55
2019-02-25T13:01:31.473Z,7.70
2019-02-25T13:04:02.408Z,9.15
2019-02-25T13:06:33.364Z,10.55
2019-02-25T13:09:06.857Z,8.15
2019-02-25T13:11:39.874Z,7.83
2019-02-25T13:14:10.701Z,8.25
2019-02-25T13:16:41.634Z,7.97
2019-02-25T13:19:12.546Z,7.42
2019-02-25T13:21:43.484Z,7.53
2019-02-25T13:24:14.405Z,6.78
2019-02-25T13:26:45.351Z,6.87
2019-02-25T13:29:16.271Z,7.67
2019-02-25T13:31:47.220Z,8.53
2019-02-25T13:34:18.232Z,7.12
2019-02-25T13:36:49.160Z,5.70
2019-02-25T13:39:20.150Z,5.72
2019-02-25T13:41:51.119Z,5.72
2019-02-25T13:44:22.064Z,5.83
2019-02-25T13:46:53.082Z,5.95
2019-02-25T13:49:23.985Z,7.63
2019-02-25T13:51:54.838Z,7.23
2019-02-25T13:54:25.763Z,4.70
2019-02-25T13:56:56.776Z,5.37
2019-02-25T13:59:27.984Z,6.23
2019-02-25T14:01:58.852Z,6.33
2019-02-25T14:04:29.778Z,6.30
2019-02-25T14:07:00.624Z,6.70
2019-02-25T14:09:31.546Z,6.93
2019-02-25T14:12:02.551Z,9.03
2019-02-25T14:14:33.436Z,3.90
2019-02-25T14:17:04.273Z,3.97
2019-02-25T14:19:35.330Z,8.13
2019-02-25T14:22:06.436Z,5.67
2019-02-25T14:24:38.546Z,3.63
2019-02-25T14:27:11.762Z,7.50
2019-02-25T14:29:44.682Z,5.43
2019-02-25T14:32:15.616Z,8.78
2019-02-25T14:34:46.544Z,8.93
2019-02-25T14:37:19.491Z,5.83
2019-02-25T14:39:53.732Z,6.53
2019-02-25T14:42:25.672Z,6.17
2019-02-25T14:44:56.299Z,4.47
2019-02-25T14:47:34.789Z,8.47
2019-02-25T14:50:00.998Z,8.50
2019-02-25T14:52:31.934Z,7.10
2019-02-25T14:55:04.911Z,5.73
2019-02-25T14:57:35.750Z,7.50
2019-02-25T15:00:15.308Z,8.90
2019-02-25T15:02:48.028Z,6.27
2019-02-25T15:05:19.848Z,8.70
2019-02-25T15:07:53.243Z,7.33
2019-02-25T15:10:29.034Z,8.97
2019-02-25T15:12:59.214Z,11.50
2019-02-25T15:15:29.597Z,7.03
2019-02-25T15:18:00.860Z,9.53
2019-02-25T15:20:31.789Z,7.77
2019-02-25T15:23:02.798Z,12.40
2019-02-25T15:25:35.857Z,9.00
2019-02-25T15:28:09.257Z,6.37
2019-02-25T15:30:38.812Z,9.03
2019-02-25T15:33:09.997Z,8.17
2019-02-25T15:35:41.678Z,7.53
2019-02-25T15:38:13.703Z,7.67
2019-02-25T15:40:44.655Z,5.70
2019-02-25T15:43:18.105Z,6.70
2019-02-25T15:45:48.477Z,8.37
2019-02-25T15:48:21.567Z,5.87
2019-02-25T15:50:55.498Z,6.43
2019-02-25T15:53:27.341Z,6.03
2019-02-25T15:56:01.034Z,6.03
2019-02-25T15:58:30.855Z,6.03
2019-02-25T16:01:01.789Z,8.23
2019-02-25T16:03:35.140Z,6.23
2019-02-25T16:06:08.348Z,6.90
2019-02-25T16:08:39.539Z,8.17
2019-02-25T16:11:12.030Z,9.23
2019-02-25T16:13:43.224Z,6.87
2019-02-25T16:16:14.735Z,5.00
2019-02-25T16:18:45.651Z,6.53
2019-02-25T16:21:16.561Z,4.23
2019-02-25T16:23:47.457Z,9.63
2019-02-25T16:26:20.051Z,5.07
2019-02-25T16:28:53.204Z,7.43
2019-02-25T16:31:24.099Z,6.27
2019-02-25T16:33:55.499Z,6.10
2019-02-25T16:36:28.298Z,7.70
2019-02-25T16:39:01.761Z,6.57
2019-02-25T16:41:36.225Z,8.47
2019-02-25T16:44:06.819Z,13.03
2019-02-25T16:46:39.404Z,8.97
2019-02-25T16:49:10.557Z,16.73
2019-02-25T16:51:41.451Z,14.33
2019-02-25T16:54:13.576Z,9.80
2019-02-25T16:56:45.097Z,7.27
2019-02-25T16:59:17.850Z,7.83
2019-02-25T17:01:48.512Z,14.27
2019-02-25T17:04:22.644Z,16.17
2019-02-25T17:06:53.543Z,12.67
2019-02-25T17:09:25.306Z,11.87
2019-02-25T17:11:57.953Z,10.77
2019-02-25T17:14:28.682Z,12.67
2019-02-25T17:16:59.561Z,13.83
2019-02-25T17:19:30.550Z,22.90
2019-02-25T17:22:02.457Z,23.50
2019-02-25T17:24:34.893Z,24.83
2019-02-25T17:27:08.962Z,10.03
2019-02-25T17:29:39.735Z,13.13
2019-02-25T17:32:11.184Z,12.53
2019-02-25T17:34:43.737Z,10.63
2019-02-25T17:37:15.413Z,12.33
2019-02-25T17:39:47.393Z,10.60
2019-02-25T17:42:19.742Z,13.30
2019-02-25T17:44:53.310Z,9.73
2019-02-25T17:47:24.413Z,10.13
2019-02-25T17:49:56.055Z,13.57
2019-02-25T17:52:28.173Z,16.43
2019-02-25T17:54:59.042Z,16.17
2019-02-25T17:57:32.245Z,11.20
2019-02-25T18:00:03.232Z,12.13
2019-02-25T18:02:35.618Z,10.23
2019-02-25T18:05:09.410Z,12.63
2019-02-25T18:07:42.024Z,10.43
2019-02-25T18:10:14.068Z,15.27
2019-02-25T18:12:45.003Z,32.63
2019-02-25T18:15:30.555Z,24.60
2019-02-25T18:18:02.504Z,19.67
2019-02-25T18:20:33.478Z,11.03
2019-02-25T18:23:05.445Z,13.40
2019-02-25T18:25:37.766Z,14.90
2019-02-25T18:28:10.836Z,13.17
2019-02-25T18:30:41.826Z,13.10
2019-02-25T18:33:12.986Z,15.47
2019-02-25T18:35:45.630Z,13.37
2019-02-25T18:38:16.533Z,20.77
2019-02-25T18:40:47.442Z,10.07
2019-02-25T18:43:20.063Z,9.63
2019-02-25T18:45:51.077Z,12.03
2019-02-25T18:48:23.275Z,15.40
2019-02-25T18:50:57.175Z,13.77
2019-02-25T18:53:27.463Z,66.67
2019-02-25T18:55:58.468Z,11.07
2019-02-25T18:58:31.095Z,10.37
2019-02-25T19:01:02.250Z,11.50
2019-02-25T19:03:35.254Z,19.13
2019-02-25T19:06:05.852Z,14.37
2019-02-25T19:08:36.879Z,10.93
2019-02-25T19:11:07.827Z,20.13
2019-02-25T19:13:38.764Z,12.30
2019-02-25T19:16:10.043Z,13.30
2019-02-25T19:18:42.942Z,13.87
2019-02-25T19:21:13.875Z,15.40
2019-02-25T19:23:46.436Z,14.00
2019-02-25T19:26:19.550Z,13.77
2019-02-25T19:28:52.091Z,14.23
2019-02-25T19:31:23.917Z,14.37
2019-02-25T19:33:55.330Z,16.10
2019-02-25T19:36:29.423Z,25.30
2019-02-25T19:38:58.797Z,15.70
2019-02-25T19:41:29.982Z,18.93
2019-02-25T19:44:01.971Z,16.43
2019-02-25T19:46:33.416Z,15.90
2019-02-25T19:49:04.414Z,16.77
2019-02-25T19:51:35.365Z,14.93
2019-02-25T19:54:06.988Z,14.83
2019-02-25T19:56:38.897Z,13.83
2019-02-25T19:59:09.999Z,18.20
2019-02-25T20:01:40.849Z,18.47
2019-02-25T20:04:13.977Z,17.63
2019-02-25T20:06:44.830Z,23.03
2019-02-25T20:09:18.128Z,27.07
2019-02-25T20:11:48.980Z,21.60
2019-02-25T20:14:19.903Z,21.70
2019-02-25T20:16:50.769Z,27.47
2019-02-25T20:19:21.601Z,27.60
2019-02-25T20:21:53.076Z,31.77
2019-02-25T20:24:25.634Z,30.47
2019-02-25T20:26:59.709Z,34.70
2019-02-25T20:29:29.467Z,22.20
2019-02-25T20:32:00.446Z,23.57
2019-02-25T20:34:32.089Z,26.00
2019-02-25T20:37:03.973Z,28.57
2019-02-25T20:39:35.999Z,23.80
2019-02-25T20:42:07.434Z,29.20
2019-02-25T20:44:38.385Z,27.93
2019-02-25T20:47:09.231Z,29.40
2019-02-25T20:49:40.079Z,29.03
2019-02-25T20:52:11.774Z,29.23
2019-02-25T20:54:45.414Z,28.87
2019-02-25T20:57:16.929Z,25.37
2019-02-25T20:59:49.287Z,23.23
2019-02-25T21:02:21.643Z,23.83
2019-02-25T21:04:53.688Z,31.53
2019-02-25T21:07:25.127Z,26.60
2019-02-25T21:09:58.636Z,28.63
2019-02-25T21:12:29.355Z,30.10
2019-02-25T21:15:00.384Z,26.90
2019-02-25T21:17:33.034Z,28.50
2019-02-25T21:20:07.089Z,22.33
2019-02-25T21:22:38.570Z,27.57
2019-02-25T21:25:11.560Z,20.07
2019-02-25T21:27:42.424Z,28.57
2019-02-25T21:30:15.968Z,21.40
2019-02-25T21:32:49.278Z,20.03
2019-02-25T21:35:23.503Z,20.40
2019-02-25T21:37:54.657Z,23.20
2019-02-25T21:40:27.820Z,19.80
2019-02-25T21:42:58.389Z,19.33
2019-02-25T21:45:32.084Z,18.07
2019-02-25T21:48:04.687Z,16.67
2019-02-25T21:50:36.028Z,16.50
2019-02-25T21:53:07.587Z,16.13
2019-02-25T21:55:39.414Z,17.83
2019-02-25T21:58:10.278Z,20.93
2019-02-25T22:00:41.112Z,18.33
2019-02-25T22:03:13.195Z,16.07
2019-02-25T22:05:44.613Z,17.13
2019-02-25T22:08:15.458Z,17.77
2019-02-25T22:10:46.332Z,19.83
2019-02-25T22:13:18.410Z,18.07
2019-02-25T22:15:49.776Z,17.97
2019-02-25T22:18:20.626Z,15.97
2019-02-25T22:20:51.595Z,15.73
2019-02-25T22:23:25.828Z,18.57
2019-02-25T22:25:54.951Z,22.43
2019-02-25T22:28:25.805Z,19.00
2019-02-25T22:30:56.669Z,19.67
2019-02-25T22:33:28.097Z,20.63
2019-02-25T22:36:00.058Z,19.07
2019-02-25T22:38:30.912Z,20.20
2019-02-25T22:41:02.286Z,21.80
2019-02-25T22:43:33.174Z,27.47
2019-02-25T22:46:05.427Z,15.07
2019-02-25T22:48:37.660Z,23.73
2019-02-25T22:51:09.180Z,21.90
2019-02-25T22:53:40.048Z,20.73
2019-02-25T22:56:13.345Z,21.20
2019-02-25T22:58:43.438Z,19.50
2019-02-25T23:01:17.468Z,18.60
2019-02-25T23:03:47.994Z,20.17
2019-02-25T23:06:21.362Z,21.23
2019-02-25T23:08:53.389Z,20.00
2019-02-25T23:11:26.462Z,19.77
2019-02-25T23:13:57.389Z,20.47
2019-02-25T23:16:28.307Z,24.87
2019-02-25T23:18:59.212Z,19.10
2019-02-25T23:21:31.447Z,17.03
2019-02-25T23:24:03.052Z,19.33
2019-02-25T23:26:35.168Z,21.73
2019-02-25T23:29:06.033Z,20.30
2019-02-25T23:31:36.887Z,20.73
2019-02-25T23:34:10.128Z,18.90
2019-02-25T23:36:43.025Z,24.63
2019-02-25T23:39:12.935Z,22.93
2019-02-25T23:41:44.384Z,19.50
2019-02-25T23:44:17.452Z,24.67
2019-02-25T23:46:48.897Z,24.53
2019-02-25T23:49:27.047Z,20.33
2019-02-25T23:51:52.303Z,18.10
2019-02-25T23:54:25.334Z,15.87
2019-02-25T23:56:57.902Z,17.53
2019-02-25T23:59:28.243Z,17.97
